sensor_id;sensor_type;location;lat;lon;timestamp;P1;durP1;ratioP1;P2;durP2;ratioP2
17169;SDS011;8700;48.222;16.342;2023-03-18T00:02:53;10.17;;;8.70;;
17169;SDS011;8700;48.222;16.342;2023-03-18T00:06:15;10.30;;;9.30;;
17169;SDS011;8700;48.222;16.342;2023-03-18T00:09:38;9.57;;;8.67;;
17169;SDS011;8700;48.222;16.342;2023-03-18T00:13:00;8.63;;;7.83;;
17169;SDS011;8700;48.222;16.342;2023-03-18T00:16:23;9.73;;;8.53;;
17169;SDS011;8700;48.222;16.342;2023-03-18T00:19:45;9.73;;;8.80;;
17169;SDS011;8700;48.222;16.342;2023-03-18T00:23:07;9.57;;;8.67;;
17169;SDS011;8700;48.222;16.342;2023-03-18T00:26:29;10.20;;;9.20;;
17169;SDS011;8700;48.222;16.342;2023-03-18T00:29:51;9.57;;;8.57;;
17169;SDS011;8700;48.222;16.342;2023-03-18T00:33:12;9.53;;;8.73;;
17169;SDS011;8700;48.222;16.342;2023-03-18T00:36:33;10.47;;;9.43;;
17169;SDS011;8700;48.222;16.342;2023-03-18T00:39:56;10.47;;;9.47;;
17169;SDS011;8700;48.222;16.342;2023-03-18T00:43:24;8.53;;;7.83;;
17169;SDS011;8700;48.222;16.342;2023-03-18T00:46:47;11.57;;;9.13;;
17169;SDS011;8700;48.222;16.342;2023-03-18T00:50:09;11.07;;;8.63;;
17169;SDS011;8700;48.222;16.342;2023-03-18T00:53:31;10.10;;;8.90;;
17169;SDS011;8700;48.222;16.342;2023-03-18T00:56:52;9.97;;;8.97;;
17169;SDS011;8700;48.222;16.342;2023-03-18T01:00:15;9.60;;;8.37;;
17169;SDS011;8700;48.222;16.342;2023-03-18T01:03:38;9.77;;;8.87;;
17169;SDS011;8700;48.222;16.342;2023-03-18T01:07:01;12.50;;;8.77;;
17169;SDS011;8700;48.222;16.342;2023-03-18T01:10:22;8.60;;;7.77;;
17169;SDS011;8700;48.222;16.342;2023-03-18T01:13:44;9.60;;;8.60;;
17169;SDS011;8700;48.222;16.342;2023-03-18T01:17:07;10.83;;;9.13;;
17169;SDS011;8700;48.222;16.342;2023-03-18T01:20:29;9.77;;;8.83;;
17169;SDS011;8700;48.222;16.342;2023-03-18T01:23:50;10.77;;;9.00;;
17169;SDS011;8700;48.222;16.342;2023-03-18T01:27:11;9.77;;;8.87;;
17169;SDS011;8700;48.222;16.342;2023-03-18T01:30:33;8.90;;;8.20;;
17169;SDS011;8700;48.222;16.342;2023-03-18T01:33:56;9.93;;;8.77;;
17169;SDS011;8700;48.222;16.342;2023-03-18T01:37:20;10.17;;;8.93;;
17169;SDS011;8700;48.222;16.342;2023-03-18T01:40:45;9.67;;;8.77;;
17169;SDS011;8700;48.222;16.342;2023-03-18T01:44:10;9.30;;;8.37;;
17169;SDS011;8700;48.222;16.342;2023-03-18T01:47:32;9.63;;;8.73;;
17169;SDS011;8700;48.222;16.342;2023-03-18T01:50:57;9.73;;;8.73;;
17169;SDS011;8700;48.222;16.342;2023-03-18T01:54:20;10.43;;;9.33;;
17169;SDS011;8700;48.222;16.342;2023-03-18T01:57:43;9.67;;;8.63;;
17169;SDS011;8700;48.222;16.342;2023-03-18T02:01:07;9.57;;;8.67;;
17169;SDS011;8700;48.222;16.342;2023-03-18T02:04:32;10.57;;;9.47;;
17169;SDS011;8700;48.222;16.342;2023-03-18T02:07:58;10.27;;;9.20;;
17169;SDS011;8700;48.222;16.342;2023-03-18T02:11:19;10.37;;;9.43;;
17169;SDS011;8700;48.222;16.342;2023-03-18T02:14:41;10.53;;;9.53;;
17169;SDS011;8700;48.222;16.342;2023-03-18T02:18:07;9.80;;;8.63;;
17169;SDS011;8700;48.222;16.342;2023-03-18T02:21:34;10.33;;;9.33;;
17169;SDS011;8700;48.222;16.342;2023-03-18T02:25:06;12.30;;;9.33;;
17169;SDS011;8700;48.222;16.342;2023-03-18T02:28:39;10.17;;;9.10;;
17169;SDS011;8700;48.222;16.342;2023-03-18T02:32:02;10.53;;;9.50;;
17169;SDS011;8700;48.222;16.342;2023-03-18T02:35:26;10.90;;;9.87;;
17169;SDS011;8700;48.222;16.342;2023-03-18T02:38:49;9.47;;;8.57;;
17169;SDS011;8700;48.222;16.342;2023-03-18T02:42:11;10.80;;;9.80;;
17169;SDS011;8700;48.222;16.342;2023-03-18T02:45:34;11.63;;;10.53;;
17169;SDS011;8700;48.222;16.342;2023-03-18T02:49:05;11.30;;;10.10;;
17169;SDS011;8700;48.222;16.342;2023-03-18T02:52:27;9.93;;;8.93;;
17169;SDS011;8700;48.222;16.342;2023-03-18T02:55:48;10.47;;;9.17;;
17169;SDS011;8700;48.222;16.342;2023-03-18T02:59:10;10.07;;;8.70;;
17169;SDS011;8700;48.222;16.342;2023-03-18T03:02:32;10.27;;;9.30;;
17169;SDS011;8700;48.222;16.342;2023-03-18T03:05:54;11.37;;;10.27;;
17169;SDS011;8700;48.222;16.342;2023-03-18T03:09:15;12.50;;;9.70;;
17169;SDS011;8700;48.222;16.342;2023-03-18T03:12:37;10.60;;;9.60;;
17169;SDS011;8700;48.222;16.342;2023-03-18T03:15:59;11.50;;;10.37;;
17169;SDS011;8700;48.222;16.342;2023-03-18T03:19:22;11.27;;;10.10;;
17169;SDS011;8700;48.222;16.342;2023-03-18T03:22:43;10.03;;;9.03;;
17169;SDS011;8700;48.222;16.342;2023-03-18T03:26:05;10.43;;;9.50;;
17169;SDS011;8700;48.222;16.342;2023-03-18T03:29:26;10.60;;;9.60;;
17169;SDS011;8700;48.222;16.342;2023-03-18T03:32:47;12.10;;;10.70;;
17169;SDS011;8700;48.222;16.342;2023-03-18T03:36:12;9.97;;;9.07;;
17169;SDS011;8700;48.222;16.342;2023-03-18T03:39:34;13.00;;;9.80;;
17169;SDS011;8700;48.222;16.342;2023-03-18T03:42:55;10.30;;;9.17;;
17169;SDS011;8700;48.222;16.342;2023-03-18T03:46:17;10.80;;;9.70;;
17169;SDS011;8700;48.222;16.342;2023-03-18T03:49:38;11.50;;;10.37;;
17169;SDS011;8700;48.222;16.342;2023-03-18T03:53:01;10.73;;;9.80;;
17169;SDS011;8700;48.222;16.342;2023-03-18T03:56:23;12.07;;;9.80;;
17169;SDS011;8700;48.222;16.342;2023-03-18T03:59:45;10.63;;;9.70;;
17169;SDS011;8700;48.222;16.342;2023-03-18T04:03:06;11.33;;;10.17;;
17169;SDS011;8700;48.222;16.342;2023-03-18T04:06:28;10.93;;;9.83;;
17169;SDS011;8700;48.222;16.342;2023-03-18T04:09:50;10.90;;;9.70;;
17169;SDS011;8700;48.222;16.342;2023-03-18T04:13:12;9.73;;;8.73;;
17169;SDS011;8700;48.222;16.342;2023-03-18T04:16:33;11.40;;;10.23;;
17169;SDS011;8700;48.222;16.342;2023-03-18T04:19:54;11.47;;;10.27;;
17169;SDS011;8700;48.222;16.342;2023-03-18T04:23:15;11.23;;;9.63;;
17169;SDS011;8700;48.222;16.342;2023-03-18T04:26:38;10.93;;;9.73;;
17169;SDS011;8700;48.222;16.342;2023-03-18T04:29:59;10.60;;;9.50;;
17169;SDS011;8700;48.222;16.342;2023-03-18T04:33:21;10.70;;;9.60;;
17169;SDS011;8700;48.222;16.342;2023-03-18T04:36:42;12.50;;;11.23;;
17169;SDS011;8700;48.222;16.342;2023-03-18T04:40:04;11.90;;;10.77;;
17169;SDS011;8700;48.222;16.342;2023-03-18T04:43:27;11.43;;;10.30;;
17169;SDS011;8700;48.222;16.342;2023-03-18T04:46:49;11.60;;;10.40;;
17169;SDS011;8700;48.222;16.342;2023-03-18T04:50:10;14.37;;;11.47;;
17169;SDS011;8700;48.222;16.342;2023-03-18T04:53:32;11.23;;;10.13;;
17169;SDS011;8700;48.222;16.342;2023-03-18T04:56:53;12.07;;;10.87;;
17169;SDS011;8700;48.222;16.342;2023-03-18T05:00:17;12.60;;;11.20;;
17169;SDS011;8700;48.222;16.342;2023-03-18T05:03:40;12.53;;;10.77;;
17169;SDS011;8700;48.222;16.342;2023-03-18T05:07:03;11.67;;;10.47;;
17169;SDS011;8700;48.222;16.342;2023-03-18T05:10:24;11.33;;;10.00;;
17169;SDS011;8700;48.222;16.342;2023-03-18T05:13:45;12.17;;;10.70;;
17169;SDS011;8700;48.222;16.342;2023-03-18T05:17:08;11.80;;;10.67;;
17169;SDS011;8700;48.222;16.342;2023-03-18T05:20:34;13.10;;;11.57;;
17169;SDS011;8700;48.222;16.342;2023-03-18T05:23:55;13.13;;;10.53;;
17169;SDS011;8700;48.222;16.342;2023-03-18T05:27:17;13.20;;;11.30;;
17169;SDS011;8700;48.222;16.342;2023-03-18T05:30:38;15.67;;;14.13;;
17169;SDS011;8700;48.222;16.342;2023-03-18T05:34:02;14.07;;;11.57;;
17169;SDS011;8700;48.222;16.342;2023-03-18T05:37:25;10.67;;;9.03;;
17169;SDS011;8700;48.222;16.342;2023-03-18T05:40:46;11.70;;;10.60;;
17169;SDS011;8700;48.222;16.342;2023-03-18T05:44:08;13.77;;;11.53;;
17169;SDS011;8700;48.222;16.342;2023-03-18T05:47:29;13.60;;;10.83;;
17169;SDS011;8700;48.222;16.342;2023-03-18T05:50:52;13.67;;;11.43;;
17169;SDS011;8700;48.222;16.342;2023-03-18T05:54:13;13.70;;;11.00;;
17169;SDS011;8700;48.222;16.342;2023-03-18T05:57:35;13.80;;;11.67;;
17169;SDS011;8700;48.222;16.342;2023-03-18T06:00:57;12.43;;;11.23;;
17169;SDS011;8700;48.222;16.342;2023-03-18T06:04:18;11.77;;;10.03;;
17169;SDS011;8700;48.222;16.342;2023-03-18T06:07:41;12.17;;;10.83;;
17169;SDS011;8700;48.222;16.342;2023-03-18T06:11:02;12.07;;;10.87;;
17169;SDS011;8700;48.222;16.342;2023-03-18T06:14:23;12.07;;;10.87;;
17169;SDS011;8700;48.222;16.342;2023-03-18T06:17:47;11.57;;;10.37;;
17169;SDS011;8700;48.222;16.342;2023-03-18T06:21:08;15.00;;;11.63;;
17169;SDS011;8700;48.222;16.342;2023-03-18T06:24:31;16.60;;;11.07;;
17169;SDS011;8700;48.222;16.342;2023-03-18T06:27:52;11.57;;;10.40;;
17169;SDS011;8700;48.222;16.342;2023-03-18T06:31:13;14.93;;;11.80;;
17169;SDS011;8700;48.222;16.342;2023-03-18T06:34:34;14.67;;;12.33;;
17169;SDS011;8700;48.222;16.342;2023-03-18T06:37:56;14.07;;;10.90;;
17169;SDS011;8700;48.222;16.342;2023-03-18T06:41:19;12.03;;;10.77;;
17169;SDS011;8700;48.222;16.342;2023-03-18T06:44:40;13.40;;;11.80;;
17169;SDS011;8700;48.222;16.342;2023-03-18T06:48:08;12.80;;;11.57;;
17169;SDS011;8700;48.222;16.342;2023-03-18T06:51:30;12.23;;;11.03;;
17169;SDS011;8700;48.222;16.342;2023-03-18T06:54:52;13.37;;;10.90;;
17169;SDS011;8700;48.222;16.342;2023-03-18T06:58:14;12.73;;;10.43;;
17169;SDS011;8700;48.222;16.342;2023-03-18T07:01:36;12.23;;;10.70;;
17169;SDS011;8700;48.222;16.342;2023-03-18T07:04:57;13.80;;;12.23;;
17169;SDS011;8700;48.222;16.342;2023-03-18T07:08:18;13.03;;;11.73;;
17169;SDS011;8700;48.222;16.342;2023-03-18T07:11:39;11.70;;;10.57;;
17169;SDS011;8700;48.222;16.342;2023-03-18T07:15:02;12.10;;;10.67;;
17169;SDS011;8700;48.222;16.342;2023-03-18T07:18:24;15.67;;;12.30;;
17169;SDS011;8700;48.222;16.342;2023-03-18T07:21:45;12.10;;;10.77;;
17169;SDS011;8700;48.222;16.342;2023-03-18T07:25:08;12.60;;;11.37;;
17169;SDS011;8700;48.222;16.342;2023-03-18T07:28:29;11.43;;;10.33;;
17169;SDS011;8700;48.222;16.342;2023-03-18T07:31:52;13.87;;;11.37;;
17169;SDS011;8700;48.222;16.342;2023-03-18T07:35:13;12.50;;;10.57;;
17169;SDS011;8700;48.222;16.342;2023-03-18T07:38:35;13.00;;;11.00;;
17169;SDS011;8700;48.222;16.342;2023-03-18T07:41:56;13.27;;;12.00;;
17169;SDS011;8700;48.222;16.342;2023-03-18T07:45:17;12.27;;;11.07;;
17169;SDS011;8700;48.222;16.342;2023-03-18T07:48:40;12.63;;;11.43;;
17169;SDS011;8700;48.222;16.342;2023-03-18T07:52:01;12.30;;;11.13;;
17169;SDS011;8700;48.222;16.342;2023-03-18T07:55:22;14.23;;;12.63;;
17169;SDS011;8700;48.222;16.342;2023-03-18T07:58:43;14.03;;;12.63;;
17169;SDS011;8700;48.222;16.342;2023-03-18T08:02:05;16.10;;;12.27;;
17169;SDS011;8700;48.222;16.342;2023-03-18T08:05:28;14.53;;;11.90;;
17169;SDS011;8700;48.222;16.342;2023-03-18T08:08:50;11.80;;;10.80;;
17169;SDS011;8700;48.222;16.342;2023-03-18T08:12:11;15.83;;;11.73;;
17169;SDS011;8700;48.222;16.342;2023-03-18T08:15:33;13.47;;;12.20;;
17169;SDS011;8700;48.222;16.342;2023-03-18T08:18:54;13.57;;;12.13;;
17169;SDS011;8700;48.222;16.342;2023-03-18T08:22:16;13.70;;;12.50;;
17169;SDS011;8700;48.222;16.342;2023-03-18T08:25:38;13.37;;;11.70;;
17169;SDS011;8700;48.222;16.342;2023-03-18T08:28:59;13.40;;;12.10;;
17169;SDS011;8700;48.222;16.342;2023-03-18T08:32:20;13.07;;;11.77;;
17169;SDS011;8700;48.222;16.342;2023-03-18T08:35:44;17.93;;;16.20;;
17169;SDS011;8700;48.222;16.342;2023-03-18T08:39:08;13.63;;;12.27;;
17169;SDS011;8700;48.222;16.342;2023-03-18T08:42:29;12.95;;;11.63;;
17169;SDS011;8700;48.222;16.342;2023-03-18T08:45:51;13.30;;;12.00;;
17169;SDS011;8700;48.222;16.342;2023-03-18T08:49:13;14.50;;;13.05;;
17169;SDS011;8700;48.222;16.342;2023-03-18T08:52:34;14.23;;;12.67;;
17169;SDS011;8700;48.222;16.342;2023-03-18T08:55:57;13.33;;;12.03;;
17169;SDS011;8700;48.222;16.342;2023-03-18T08:59:19;15.07;;;13.40;;
17169;SDS011;8700;48.222;16.342;2023-03-18T09:02:41;14.90;;;12.83;;
17169;SDS011;8700;48.222;16.342;2023-03-18T09:06:02;16.47;;;13.80;;
17169;SDS011;8700;48.222;16.342;2023-03-18T09:09:24;13.00;;;11.73;;
17169;SDS011;8700;48.222;16.342;2023-03-18T09:12:46;13.73;;;11.88;;
17169;SDS011;8700;48.222;16.342;2023-03-18T09:16:09;12.95;;;11.60;;
17169;SDS011;8700;48.222;16.342;2023-03-18T09:19:31;12.97;;;11.67;;
17169;SDS011;8700;48.222;16.342;2023-03-18T09:22:53;15.23;;;13.70;;
17169;SDS011;8700;48.222;16.342;2023-03-18T09:26:14;13.93;;;12.43;;
17169;SDS011;8700;48.222;16.342;2023-03-18T09:29:37;12.77;;;11.55;;
17169;SDS011;8700;48.222;16.342;2023-03-18T09:32:59;14.27;;;12.50;;
17169;SDS011;8700;48.222;16.342;2023-03-18T09:36:21;14.73;;;13.05;;
17169;SDS011;8700;48.222;16.342;2023-03-18T09:39:42;13.63;;;12.40;;
17169;SDS011;8700;48.222;16.342;2023-03-18T09:43:08;12.88;;;11.68;;
17169;SDS011;8700;48.222;16.342;2023-03-18T09:46:43;13.02;;;11.93;;
17169;SDS011;8700;48.222;16.342;2023-03-18T09:50:17;13.30;;;12.20;;
17169;SDS011;8700;48.222;16.342;2023-03-18T09:53:51;14.10;;;12.90;;
17169;SDS011;8700;48.222;16.342;2023-03-18T09:57:16;13.20;;;11.82;;
17169;SDS011;8700;48.222;16.342;2023-03-18T10:00:42;14.25;;;12.82;;
17169;SDS011;8700;48.222;16.342;2023-03-18T10:04:05;12.80;;;11.70;;
17169;SDS011;8700;48.222;16.342;2023-03-18T10:07:31;13.50;;;12.30;;
17169;SDS011;8700;48.222;16.342;2023-03-18T10:10:57;12.88;;;11.65;;
17169;SDS011;8700;48.222;16.342;2023-03-18T10:14:31;13.88;;;12.48;;
17169;SDS011;8700;48.222;16.342;2023-03-18T10:17:58;12.07;;;10.88;;
17169;SDS011;8700;48.222;16.342;2023-03-18T10:21:26;13.35;;;12.05;;
17169;SDS011;8700;48.222;16.342;2023-03-18T10:24:56;13.35;;;11.95;;
17169;SDS011;8700;48.222;16.342;2023-03-18T10:32:34;13.82;;;12.60;;
17169;SDS011;8700;48.222;16.342;2023-03-18T10:36:07;14.48;;;13.18;;
17169;SDS011;8700;48.222;16.342;2023-03-18T10:39:38;13.90;;;12.70;;
17169;SDS011;8700;48.222;16.342;2023-03-18T10:43:01;10.70;;;9.73;;
17169;SDS011;8700;48.222;16.342;2023-03-18T10:46:24;12.82;;;11.68;;
17169;SDS011;8700;48.222;16.342;2023-03-18T10:49:47;13.32;;;12.13;;
17169;SDS011;8700;48.222;16.342;2023-03-18T10:53:25;13.95;;;12.65;;
17169;SDS011;8700;48.222;16.342;2023-03-18T10:56:50;12.90;;;11.68;;
17169;SDS011;8700;48.222;16.342;2023-03-18T11:00:16;12.75;;;11.65;;
17169;SDS011;8700;48.222;16.342;2023-03-18T11:03:47;14.25;;;12.77;;
17169;SDS011;8700;48.222;16.342;2023-03-18T11:07:13;14.65;;;13.38;;
17169;SDS011;8700;48.222;16.342;2023-03-18T11:10:42;14.25;;;12.95;;
17169;SDS011;8700;48.222;16.342;2023-03-18T11:14:10;12.15;;;11.18;;
17169;SDS011;8700;48.222;16.342;2023-03-18T11:17:35;13.57;;;12.15;;
17169;SDS011;8700;48.222;16.342;2023-03-18T11:20:59;12.98;;;11.77;;
17169;SDS011;8700;48.222;16.342;2023-03-18T11:24:24;14.00;;;12.65;;
17169;SDS011;8700;48.222;16.342;2023-03-18T11:27:56;13.73;;;12.52;;
17169;SDS011;8700;48.222;16.342;2023-03-18T11:31:23;12.52;;;11.43;;
17169;SDS011;8700;48.222;16.342;2023-03-18T11:34:46;13.52;;;12.25;;
17169;SDS011;8700;48.222;16.342;2023-03-18T11:38:16;14.18;;;12.93;;
17169;SDS011;8700;48.222;16.342;2023-03-18T11:41:39;14.63;;;13.02;;
17169;SDS011;8700;48.222;16.342;2023-03-18T11:45:00;14.43;;;13.02;;
17169;SDS011;8700;48.222;16.342;2023-03-18T11:48:30;13.52;;;12.32;;
17169;SDS011;8700;48.222;16.342;2023-03-18T11:51:57;13.85;;;12.63;;
17169;SDS011;8700;48.222;16.342;2023-03-18T11:55:36;13.82;;;12.32;;
17169;SDS011;8700;48.222;16.342;2023-03-18T12:07:03;14.35;;;12.95;;
17169;SDS011;8700;48.222;16.342;2023-03-18T12:10:50;13.60;;;12.30;;
17169;SDS011;8700;48.222;16.342;2023-03-18T12:14:17;12.68;;;11.38;;
17169;SDS011;8700;48.222;16.342;2023-03-18T12:17:45;14.15;;;12.88;;
17169;SDS011;8700;48.222;16.342;2023-03-18T12:21:24;14.98;;;13.57;;
17169;SDS011;8700;48.222;16.342;2023-03-18T12:25:04;15.40;;;13.32;;
17169;SDS011;8700;48.222;16.342;2023-03-18T12:28:39;14.32;;;12.75;;
17169;SDS011;8700;48.222;16.342;2023-03-18T12:32:08;13.57;;;12.38;;
17169;SDS011;8700;48.222;16.342;2023-03-18T12:35:48;14.73;;;12.82;;
17169;SDS011;8700;48.222;16.342;2023-03-18T12:39:36;15.40;;;13.85;;
17169;SDS011;8700;48.222;16.342;2023-03-18T12:43:17;13.68;;;12.38;;
17169;SDS011;8700;48.222;16.342;2023-03-18T12:46:48;14.60;;;13.23;;
17169;SDS011;8700;48.222;16.342;2023-03-18T12:50:15;14.98;;;13.38;;
17169;SDS011;8700;48.222;16.342;2023-03-18T12:53:39;15.68;;;13.77;;
17169;SDS011;8700;48.222;16.342;2023-03-18T12:57:06;14.23;;;12.77;;
17169;SDS011;8700;48.222;16.342;2023-03-18T13:00:35;16.27;;;12.52;;
17169;SDS011;8700;48.222;16.342;2023-03-18T13:04:00;14.23;;;12.88;;
17169;SDS011;8700;48.222;16.342;2023-03-18T13:07:27;14.20;;;12.80;;
17169;SDS011;8700;48.222;16.342;2023-03-18T13:10:56;13.70;;;12.18;;
17169;SDS011;8700;48.222;16.342;2023-03-18T13:14:27;12.55;;;11.35;;
17169;SDS011;8700;48.222;16.342;2023-03-18T13:18:04;13.77;;;12.35;;
17169;SDS011;8700;48.222;16.342;2023-03-18T13:21:35;12.13;;;11.02;;
17169;SDS011;8700;48.222;16.342;2023-03-18T13:25:05;13.02;;;11.73;;
17169;SDS011;8700;48.222;16.342;2023-03-18T13:28:44;11.70;;;10.60;;
17169;SDS011;8700;48.222;16.342;2023-03-18T13:32:23;12.02;;;10.82;;
17169;SDS011;8700;48.222;16.342;2023-03-18T13:35:56;11.93;;;11.00;;
17169;SDS011;8700;48.222;16.342;2023-03-18T13:39:38;11.80;;;10.75;;
17169;SDS011;8700;48.222;16.342;2023-03-18T13:43:10;11.88;;;10.88;;
17169;SDS011;8700;48.222;16.342;2023-03-18T13:46:33;12.73;;;11.55;;
17169;SDS011;8700;48.222;16.342;2023-03-18T13:50:00;11.25;;;9.27;;
17169;SDS011;8700;48.222;16.342;2023-03-18T13:53:24;12.35;;;11.20;;
17169;SDS011;8700;48.222;16.342;2023-03-18T13:56:48;12.07;;;10.98;;
17169;SDS011;8700;48.222;16.342;2023-03-18T14:00:22;10.98;;;10.07;;
17169;SDS011;8700;48.222;16.342;2023-03-18T14:03:53;12.00;;;11.00;;
17169;SDS011;8700;48.222;16.342;2023-03-18T14:07:20;12.55;;;11.45;;
17169;SDS011;8700;48.222;16.342;2023-03-18T14:10:42;11.52;;;10.32;;
17169;SDS011;8700;48.222;16.342;2023-03-18T14:14:03;11.68;;;10.68;;
17169;SDS011;8700;48.222;16.342;2023-03-18T14:17:29;11.13;;;10.02;;
17169;SDS011;8700;48.222;16.342;2023-03-18T14:21:01;11.65;;;10.75;;
17169;SDS011;8700;48.222;16.342;2023-03-18T14:24:27;11.18;;;10.02;;
17169;SDS011;8700;48.222;16.342;2023-03-18T14:27:49;10.90;;;9.85;;
17169;SDS011;8700;48.222;16.342;2023-03-18T14:31:20;10.32;;;9.52;;
17169;SDS011;8700;48.222;16.342;2023-03-18T14:34:52;11.40;;;10.35;;
17169;SDS011;8700;48.222;16.342;2023-03-18T14:38:17;11.05;;;10.02;;
17169;SDS011;8700;48.222;16.342;2023-03-18T14:41:43;10.18;;;9.38;;
17169;SDS011;8700;48.222;16.342;2023-03-18T14:45:11;11.52;;;10.27;;
17169;SDS011;8700;48.222;16.342;2023-03-18T14:48:37;11.43;;;10.35;;
17169;SDS011;8700;48.222;16.342;2023-03-18T14:51:58;10.27;;;9.38;;
17169;SDS011;8700;48.222;16.342;2023-03-18T14:55:22;9.65;;;8.85;;
17169;SDS011;8700;48.222;16.342;2023-03-18T14:58:49;10.70;;;9.77;;
17169;SDS011;8700;48.222;16.342;2023-03-18T15:02:15;10.10;;;9.18;;
17169;SDS011;8700;48.222;16.342;2023-03-18T15:05:42;11.07;;;10.05;;
17169;SDS011;8700;48.222;16.342;2023-03-18T15:09:05;15.75;;;10.85;;
17169;SDS011;8700;48.222;16.342;2023-03-18T15:12:29;11.13;;;9.95;;
17169;SDS011;8700;48.222;16.342;2023-03-18T15:15:53;12.90;;;11.32;;
17169;SDS011;8700;48.222;16.342;2023-03-18T15:19:15;12.65;;;11.40;;
17169;SDS011;8700;48.222;16.342;2023-03-18T15:22:38;12.63;;;11.32;;
17169;SDS011;8700;48.222;16.342;2023-03-18T15:26:00;13.23;;;11.35;;
17169;SDS011;8700;48.222;16.342;2023-03-18T15:29:24;12.32;;;11.10;;
17169;SDS011;8700;48.222;16.342;2023-03-18T15:32:48;12.88;;;11.45;;
17169;SDS011;8700;48.222;16.342;2023-03-18T15:36:12;12.77;;;11.57;;
17169;SDS011;8700;48.222;16.342;2023-03-18T15:39:36;12.90;;;10.82;;
17169;SDS011;8700;48.222;16.342;2023-03-18T15:43:02;11.90;;;10.80;;
17169;SDS011;8700;48.222;16.342;2023-03-18T15:46:31;17.73;;;14.88;;
17169;SDS011;8700;48.222;16.342;2023-03-18T15:49:54;11.55;;;10.35;;
17169;SDS011;8700;48.222;16.342;2023-03-18T15:53:17;12.18;;;11.05;;
17169;SDS011;8700;48.222;16.342;2023-03-18T15:56:42;13.38;;;12.07;;
17169;SDS011;8700;48.222;16.342;2023-03-18T16:00:06;12.82;;;11.60;;
17169;SDS011;8700;48.222;16.342;2023-03-18T16:03:31;12.93;;;11.18;;
17169;SDS011;8700;48.222;16.342;2023-03-18T16:06:55;11.90;;;10.85;;
17169;SDS011;8700;48.222;16.342;2023-03-18T16:10:18;12.40;;;11.25;;
17169;SDS011;8700;48.222;16.342;2023-03-18T16:13:41;10.55;;;9.45;;
17169;SDS011;8700;48.222;16.342;2023-03-18T16:17:03;11.75;;;10.55;;
17169;SDS011;8700;48.222;16.342;2023-03-18T16:20:24;11.60;;;10.50;;
17169;SDS011;8700;48.222;16.342;2023-03-18T16:23:48;11.80;;;10.70;;
17169;SDS011;8700;48.222;16.342;2023-03-18T16:27:12;11.13;;;10.07;;
17169;SDS011;8700;48.222;16.342;2023-03-18T16:30:47;12.30;;;11.10;;
17169;SDS011;8700;48.222;16.342;2023-03-18T16:34:12;11.80;;;10.65;;
17169;SDS011;8700;48.222;16.342;2023-03-18T16:37:35;12.63;;;11.40;;
17169;SDS011;8700;48.222;16.342;2023-03-18T16:40:58;11.63;;;10.43;;
17169;SDS011;8700;48.222;16.342;2023-03-18T16:44:20;11.57;;;10.48;;
17169;SDS011;8700;48.222;16.342;2023-03-18T16:47:42;11.43;;;10.48;;
17169;SDS011;8700;48.222;16.342;2023-03-18T16:51:05;12.35;;;11.07;;
17169;SDS011;8700;48.222;16.342;2023-03-18T16:54:26;12.02;;;11.02;;
17169;SDS011;8700;48.222;16.342;2023-03-18T16:57:51;11.43;;;10.27;;
17169;SDS011;8700;48.222;16.342;2023-03-18T17:01:14;14.52;;;11.35;;
17169;SDS011;8700;48.222;16.342;2023-03-18T17:04:37;12.32;;;10.90;;
17169;SDS011;8700;48.222;16.342;2023-03-18T17:07:58;12.63;;;10.75;;
17169;SDS011;8700;48.222;16.342;2023-03-18T17:11:20;12.35;;;11.35;;
17169;SDS011;8700;48.222;16.342;2023-03-18T17:14:43;12.80;;;11.38;;
17169;SDS011;8700;48.222;16.342;2023-03-18T17:18:12;10.63;;;9.73;;
17169;SDS011;8700;48.222;16.342;2023-03-18T17:21:35;11.30;;;10.30;;
17169;SDS011;8700;48.222;16.342;2023-03-18T17:24:56;11.30;;;10.25;;
17169;SDS011;8700;48.222;16.342;2023-03-18T17:28:22;12.73;;;11.57;;
17169;SDS011;8700;48.222;16.342;2023-03-18T17:31:49;12.55;;;11.30;;
17169;SDS011;8700;48.222;16.342;2023-03-18T17:35:12;13.65;;;12.48;;
17169;SDS011;8700;48.222;16.342;2023-03-18T17:38:35;12.10;;;10.90;;
17169;SDS011;8700;48.222;16.342;2023-03-18T17:41:57;14.07;;;12.82;;
17169;SDS011;8700;48.222;16.342;2023-03-18T17:45:21;16.40;;;14.73;;
17169;SDS011;8700;48.222;16.342;2023-03-18T17:48:46;11.95;;;10.75;;
17169;SDS011;8700;48.222;16.342;2023-03-18T17:52:08;14.00;;;12.77;;
17169;SDS011;8700;48.222;16.342;2023-03-18T17:55:30;12.63;;;11.43;;
17169;SDS011;8700;48.222;16.342;2023-03-18T17:58:52;13.80;;;12.32;;
17169;SDS011;8700;48.222;16.342;2023-03-18T18:02:14;11.57;;;10.57;;
17169;SDS011;8700;48.222;16.342;2023-03-18T18:05:38;13.68;;;11.93;;
17169;SDS011;8700;48.222;16.342;2023-03-18T18:08:59;13.27;;;12.10;;
17169;SDS011;8700;48.222;16.342;2023-03-18T18:12:21;13.20;;;11.52;;
17169;SDS011;8700;48.222;16.342;2023-03-18T18:15:44;15.52;;;11.55;;
17169;SDS011;8700;48.222;16.342;2023-03-18T18:19:07;13.40;;;12.18;;
17169;SDS011;8700;48.222;16.342;2023-03-18T18:22:31;14.13;;;12.73;;
17169;SDS011;8700;48.222;16.342;2023-03-18T18:25:52;11.80;;;10.73;;
17169;SDS011;8700;48.222;16.342;2023-03-18T18:29:15;12.38;;;11.38;;
17169;SDS011;8700;48.222;16.342;2023-03-18T18:32:39;14.38;;;13.02;;
17169;SDS011;8700;48.222;16.342;2023-03-18T18:36:02;13.32;;;12.02;;
17169;SDS011;8700;48.222;16.342;2023-03-18T18:39:25;13.65;;;12.25;;
17169;SDS011;8700;48.222;16.342;2023-03-18T18:42:46;12.65;;;11.43;;
17169;SDS011;8700;48.222;16.342;2023-03-18T18:46:08;12.48;;;11.25;;
17169;SDS011;8700;48.222;16.342;2023-03-18T18:49:33;11.45;;;10.38;;
17169;SDS011;8700;48.222;16.342;2023-03-18T18:52:54;14.43;;;11.57;;
17169;SDS011;8700;48.222;16.342;2023-03-18T18:56:18;13.05;;;11.82;;
17169;SDS011;8700;48.222;16.342;2023-03-18T18:59:43;13.02;;;11.82;;
17169;SDS011;8700;48.222;16.342;2023-03-18T19:03:05;14.00;;;12.57;;
17169;SDS011;8700;48.222;16.342;2023-03-18T19:06:32;13.85;;;12.43;;
17169;SDS011;8700;48.222;16.342;2023-03-18T19:09:56;14.60;;;13.30;;
17169;SDS011;8700;48.222;16.342;2023-03-18T19:13:19;13.50;;;12.20;;
17169;SDS011;8700;48.222;16.342;2023-03-18T19:16:42;13.32;;;12.13;;
17169;SDS011;8700;48.222;16.342;2023-03-18T19:20:03;14.00;;;12.70;;
17169;SDS011;8700;48.222;16.342;2023-03-18T19:23:40;12.48;;;11.18;;
17169;SDS011;8700;48.222;16.342;2023-03-18T19:27:02;14.68;;;13.18;;
17169;SDS011;8700;48.222;16.342;2023-03-18T19:30:26;13.38;;;11.98;;
17169;SDS011;8700;48.222;16.342;2023-03-18T19:33:48;12.95;;;11.65;;
17169;SDS011;8700;48.222;16.342;2023-03-18T19:37:11;14.20;;;12.35;;
17169;SDS011;8700;48.222;16.342;2023-03-18T19:40:35;12.73;;;11.52;;
17169;SDS011;8700;48.222;16.342;2023-03-18T19:43:58;12.30;;;11.02;;
17169;SDS011;8700;48.222;16.342;2023-03-18T19:47:25;13.30;;;11.93;;
17169;SDS011;8700;48.222;16.342;2023-03-18T19:50:48;14.07;;;12.70;;
17169;SDS011;8700;48.222;16.342;2023-03-18T19:57:55;14.17;;;12.83;;
17169;SDS011;8700;48.222;16.342;2023-03-18T20:01:17;14.30;;;12.65;;
17169;SDS011;8700;48.222;16.342;2023-03-18T20:04:41;13.68;;;12.48;;
17169;SDS011;8700;48.222;16.342;2023-03-18T20:08:02;14.75;;;13.35;;
17169;SDS011;8700;48.222;16.342;2023-03-18T20:11:24;13.90;;;12.52;;
17169;SDS011;8700;48.222;16.342;2023-03-18T20:14:45;13.57;;;12.27;;
17169;SDS011;8700;48.222;16.342;2023-03-18T20:18:07;14.35;;;12.57;;